FR-0274 weather

Glacier De L'etendard Airport
St Sorlin D'Arves, Rhône Alpes, France

Public forecast

Using degrees Celsius for public forecast. Weather courtesy of forecast.io.

METAR (pilot weather report)

Closest report is Chambéry-Savoie Airport, 31.0 nm (57.4 km) NNW. Retrieved 2019/09/16 01:30 UTC (0 seconds ago):

LFLB 160130Z AUTO 00000KT CAVOK 16/15 Q1022 NOSIG

TAF (pilot weather forecast)

Closest forecast is Chambéry-Savoie Airport, 31.0 nm (57.4 km) NNW. Retrieved 2019/09/15 23:57 UTC (1 hour ago):

TAF EDSB 152350Z 1523/1618 CNL= TAF LFLB 152300Z 1600/1624 VRB03KT CAVOK BECMG 1608/1611 36005KT